Time;durP1;ratioP1;P1;durP2;ratioP2;P2;SDS_P1;SDS_P2;PMS_P1;PMS_P2;Temp;Humidity;BMP_temperature;BMP_pressure;BME280_temperature;BME280_humidity;BME280_pressure;Samples;Min_cycle;Max_cycle;Signal;HPM_P1;HPM_P2
2022/05/23 00:01:12;;;;;;;;;;;;;;;;;;5124531;28;19986;-67
2022/05/23 00:03:38;;;;;;;;;;;;;;;;;;5128306;28;19919;-67
2022/05/23 00:06:04;;;;;;;;;;;;;;;;;;5128434;28;19919;-68
2022/05/23 00:08:30;;;;;;;;;;;;;;;;;;5128474;28;19923;-68
2022/05/23 00:10:56;;;;;;;;;;;;;;;;;;5128348;28;19924;-67
2022/05/23 00:13:22;;;;;;;;;;;;;;;;;;5128491;28;19920;-66
2022/05/23 00:15:48;;;;;;;;;;;;;;;;;;5128288;28;20445;-67
2022/05/23 00:18:14;;;;;;;;;;;;;;;;;;5127853;28;19926;-67
2022/05/23 00:20:40;;;;;;;;;;;;;;;;;;5126134;28;19962;-67
2022/05/23 00:23:06;;;;;;;;;;;;;;;;;;5110027;28;19994;-67
2022/05/23 00:25:32;;;;;;;;;;;;;;;;;;5127953;28;19920;-67
2022/05/23 00:27:58;;;;;;;;;;;;;;;;;;5128231;28;19919;-67
2022/05/23 00:30:24;;;;;;;;;;;;;;;;;;5126857;28;20011;-68
2022/05/23 00:35:35;;;;;;;;;;;;;;;;;;5126693;28;19927;-67
2022/05/23 00:38:01;;;;;;;;;;;;;;;;;;5127888;28;19920;-67
2022/05/23 00:40:27;;;;;;;;;;;;;;;;;;5127897;28;19924;-67
2022/05/23 00:45:37;;;;;;;;;;;;;;;;;;5122062;28;19920;-68
2022/05/23 00:48:03;;;;;;;;;;;;;;;;;;5127846;28;19919;-67
2022/05/23 00:50:29;;;;;;;;;;;;;;;;;;5126113;28;19920;-67
2022/05/23 00:52:55;;;;;;;;;;;;;;;;;;5126748;28;19947;-68
2022/05/23 00:55:21;;;;;;;;;;;;;;;;;;5127572;28;20390;-67
2022/05/23 00:57:47;;;;;;;;;;;;;;;;;;5127605;28;19919;-67
2022/05/23 01:00:14;;;;;;;;;;;;;;;;;;5127396;28;19927;-68
2022/05/23 01:02:40;;;;;;;;;;;;;;;;;;5127355;28;19923;-67
2022/05/23 01:05:06;;;;;;;;;;;;;;;;;;5124054;28;19931;-67
2022/05/23 01:07:32;;;;;;;;;;;;;;;;;;5126130;28;19934;-67
2022/05/23 01:09:58;;;;;;;;;;;;;;;;;;5127292;28;19941;-68
2022/05/23 01:12:24;;;;;;;;;;;;;;;;;;5127396;28;19979;-67
2022/05/23 01:14:50;;;;;;;;;;;;;;;;;;5127373;28;19930;-68
2022/05/23 01:17:16;;;;;;;;;;;;;;;;;;5127124;28;19924;-68
2022/05/23 01:19:42;;;;;;;;;;;;;;;;;;5126962;28;19920;-67
2022/05/23 01:22:08;;;;;;;;;;;;;;;;;;5126854;28;19930;-68
2022/05/23 01:24:34;;;;;;;;;;;;;;;;;;5126980;28;19920;-67
2022/05/23 01:27:00;;;;;;;;;;;;;;;;;;5125561;28;19945;-67
2022/05/23 01:29:26;;;;;;;;;;;;;;;;;;5126761;28;19941;-67
2022/05/23 01:31:52;;;;;;;;;;;;;;;;;;5126048;28;19925;-67
2022/05/23 01:34:18;;;;;;;;;;;;;;;;;;5126667;28;19920;-67
2022/05/23 01:36:44;;;;;;;;;;;;;;;;;;5126556;28;20311;-67
2022/05/23 01:39:10;;;;;;;;;;;;;;;;;;5126745;28;19936;-67
2022/05/23 01:41:36;;;;;;;;;;;;;;;;;;5126532;28;19920;-67
2022/05/23 01:44:02;;;;;;;;;;;;;;;;;;5126700;28;19981;-67
2022/05/23 01:46:27;;;;;;;;;;;;;;;;;;5124038;28;19927;-66
2022/05/23 01:48:54;;;;;;;;;;;;;;;;;;5109122;28;19928;-67
2022/05/23 01:51:20;;;;;;;;;;;;;;;;;;5085577;28;19947;-66
2022/05/23 01:53:46;;;;;;;;;;;;;;;;;;5085609;28;19920;-68
2022/05/23 01:56:12;;;;;;;;;;;;;;;;;;5085695;28;20399;-67
2022/05/23 02:01:25;;;;;;;;;;;;;;;;;;5126122;28;19980;-67
2022/05/23 02:03:51;;;;;;;;;;;;;;;;;;5126076;28;19927;-68
2022/05/23 02:06:17;;;;;;;;;;;;;;;;;;5124344;28;19979;-67
2022/05/23 02:08:43;;;;;;;;;;;;;;;;;;5126339;28;19920;-67
2022/05/23 02:11:09;;;;;;;;;;;;;;;;;;5126287;28;20014;-67
2022/05/23 02:13:35;;;;;;;;;;;;;;;;;;5126023;28;19995;-67
2022/05/23 02:16:01;;;;;;;;;;;;;;;;;;5126172;28;19982;-67
2022/05/23 02:18:27;;;;;;;;;;;;;;;;;;5126098;28;19935;-67
2022/05/23 02:20:53;;;;;;;;;;;;;;;;;;5125677;28;20264;-68
2022/05/23 02:23:19;;;;;;;;;;;;;;;;;;5107400;28;19941;-67
2022/05/23 02:25:45;;;;;;;;;;;;;;;;;;5126019;28;19919;-67
2022/05/23 02:28:11;;;;;;;;;;;;;;;;;;5122601;28;19919;-67
2022/05/23 02:30:37;;;;;;;;;;;;;;;;;;5124630;28;19948;-67
2022/05/23 02:33:03;;;;;;;;;;;;;;;;;;5125610;28;19919;-67
2022/05/23 02:35:29;;;;;;;;;;;;;;;;;;5125741;28;20174;-67
2022/05/23 02:37:55;;;;;;;;;;;;;;;;;;5125762;28;20255;-67
2022/05/23 02:40:21;;;;;;;;;;;;;;;;;;5125564;28;19961;-67
2022/05/23 02:42:47;;;;;;;;;;;;;;;;;;5125518;28;19959;-68
2022/05/23 02:45:13;;;;;;;;;;;;;;;;;;5125781;28;20044;-67
2022/05/23 02:47:39;;;;;;;;;;;;;;;;;;5123144;28;19920;-68
2022/05/23 02:50:05;;;;;;;;;;;;;;;;;;5124418;28;19927;-67
2022/05/23 02:52:31;;;;;;;;;;;;;;;;;;5125453;28;19919;-67
2022/05/23 02:54:57;;;;;;;;;;;;;;;;;;5125727;28;19935;-67
2022/05/23 02:57:23;;;;;;;;;;;;;;;;;;5125758;28;19919;-67
2022/05/23 02:59:49;;;;;;;;;;;;;;;;;;5125575;28;19926;-67
2022/05/23 03:05:00;;;;;;;;;;;;;;;;;;5125262;28;19924;-68
2022/05/23 03:07:26;;;;;;;;;;;;;;;;;;5125271;28;19920;-68
2022/05/23 03:09:52;;;;;;;;;;;;;;;;;;5104033;28;19924;-67
2022/05/23 03:12:18;;;;;;;;;;;;;;;;;;5124350;28;20360;-68
2022/05/23 03:14:44;;;;;;;;;;;;;;;;;;5125411;28;19919;-68
2022/05/23 03:17:10;;;;;;;;;;;;;;;;;;5107038;28;20398;-68
2022/05/23 03:19:36;;;;;;;;;;;;;;;;;;5125327;28;19945;-66
2022/05/23 03:27:31;;;;;;;;;;;;;;;;;;5125064;28;19926;-67
2022/05/23 03:29:57;;;;;;;;;;;;;;;;;;5105376;28;19920;-67
2022/05/23 03:32:23;;;;;;;;;;;;;;;;;;5125268;28;19920;-67
2022/05/23 03:34:49;;;;;;;;;;;;;;;;;;5125300;28;19920;-67
2022/05/23 03:37:15;;;;;;;;;;;;;;;;;;5106815;28;19927;-66
2022/05/23 03:39:41;;;;;;;;;;;;;;;;;;5125121;28;20058;-67
2022/05/23 03:42:07;;;;;;;;;;;;;;;;;;5125310;28;19924;-67
2022/05/23 03:44:34;;;;;;;;;;;;;;;;;;5125237;28;19927;-68
2022/05/23 03:47:00;;;;;;;;;;;;;;;;;;5125049;28;19930;-68
2022/05/23 03:49:27;;;;;;;;;;;;;;;;;;5125202;28;19926;-68
2022/05/23 03:51:53;;;;;;;;;;;;;;;;;;5123231;28;19935;-68
2022/05/23 03:54:19;;;;;;;;;;;;;;;;;;5126947;28;19916;-68
2022/05/23 03:56:45;;;;;;;;;;;;;;;;;;5128931;28;19926;-68
2022/05/23 03:59:11;;;;;;;;;;;;;;;;;;5128714;28;19943;-68
2022/05/23 04:01:37;;;;;;;;;;;;;;;;;;5128580;28;19927;-68
2022/05/23 04:04:03;;;;;;;;;;;;;;;;;;5128493;28;19919;-68
2022/05/23 04:06:29;;;;;;;;;;;;;;;;;;5128427;28;19971;-68
2022/05/23 04:08:55;;;;;;;;;;;;;;;;;;5128384;28;19926;-67
2022/05/23 04:11:21;;;;;;;;;;;;;;;;;;5124701;28;20014;-66
2022/05/23 04:13:47;;;;;;;;;;;;;;;;;;5110212;28;19915;-67
2022/05/23 04:16:13;;;;;;;;;;;;;;;;;;5128423;28;19962;-67
2022/05/23 04:18:39;;;;;;;;;;;;;;;;;;5128412;28;19929;-67
2022/05/23 04:21:05;;;;;;;;;;;;;;;;;;5128085;28;20333;-67
2022/05/23 04:23:31;;;;;;;;;;;;;;;;;;5128209;28;19920;-67
2022/05/23 04:25:57;;;;;;;;;;;;;;;;;;5109860;28;19920;-67
2022/05/23 04:28:23;;;;;;;;;;;;;;;;;;5128136;28;19934;-67
2022/05/23 04:30:48;;;;;;;;;;;;;;;;;;5128186;28;19927;-67
2022/05/23 04:35:59;;;;;;;;;;;;;;;;;;5127972;28;19919;-67
2022/05/23 04:38:25;;;;;;;;;;;;;;;;;;5127765;28;19923;-67
2022/05/23 04:40:51;;;;;;;;;;;;;;;;;;5128000;28;19926;-67
2022/05/23 04:43:17;;;;;;;;;;;;;;;;;;5127718;28;20015;-67
2022/05/23 04:45:43;;;;;;;;;;;;;;;;;;5127936;28;19927;-67
2022/05/23 04:50:53;;;;;;;;;;;;;;;;;;5127392;28;19964;-67
2022/05/23 04:53:20;;;;;;;;;;;;;;;;;;5120324;28;19920;-67
2022/05/23 04:55:46;;;;;;;;;;;;;;;;;;5127751;28;19976;-67
2022/05/23 04:58:11;;;;;;;;;;;;;;;;;;5127643;28;20001;-67
2022/05/23 05:00:39;;;;;;;;;;;;;;;;;;5127479;28;19974;-67
2022/05/23 05:03:05;;;;;;;;;;;;;;;;;;5124326;28;19958;-68
2022/05/23 05:05:33;;;;;;;;;;;;;;;;;;5126893;28;19920;-67
2022/05/23 05:07:59;;;;;;;;;;;;;;;;;;5126450;28;19956;-68
2022/05/23 05:10:25;;;;;;;;;;;;;;;;;;5127294;28;19919;-67
2022/05/23 05:12:51;;;;;;;;;;;;;;;;;;5125361;28;19941;-67
2022/05/23 05:15:17;;;;;;;;;;;;;;;;;;5126955;28;19919;-67
2022/05/23 05:17:43;;;;;;;;;;;;;;;;;;5104882;28;19928;-67
2022/05/23 05:20:09;;;;;;;;;;;;;;;;;;5105034;28;19920;-67
2022/05/23 05:22:35;;;;;;;;;;;;;;;;;;5104874;28;19939;-67
2022/05/23 05:25:02;;;;;;;;;;;;;;;;;;5102038;28;19990;-68
2022/05/23 05:27:29;;;;;;;;;;;;;;;;;;5103050;28;20014;-67
2022/05/23 05:29:55;;;;;;;;;;;;;;;;;;5104061;28;19927;-67
2022/05/23 05:32:20;;;;;;;;;;;;;;;;;;5104459;28;19920;-67
2022/05/23 05:34:46;;;;;;;;;;;;;;;;;;5102074;28;19920;-67
2022/05/23 05:37:12;;;;;;;;;;;;;;;;;;5104681;28;19920;-68
2022/05/23 05:39:38;;;;;;;;;;;;;;;;;;5106360;28;20012;-67
2022/05/23 05:42:05;;;;;;;;;;;;;;;;;;5112267;28;19941;-67
2022/05/23 05:44:31;;;;;;;;;;;;;;;;;;5104314;28;19980;-67
2022/05/23 05:46:57;;;;;;;;;;;;;;;;;;5105402;28;19920;-68
2022/05/23 05:49:23;;;;;;;;;;;;;;;;;;5102724;28;19920;-68
2022/05/23 05:51:49;;;;;;;;;;;;;;;;;;5108794;28;20005;-67
2022/05/23 05:54:15;;;;;;;;;;;;;;;;;;5111570;28;19920;-68
2022/05/23 05:56:43;;;;;;;;;;;;;;;;;;5099787;28;19919;-68
2022/05/23 05:59:09;;;;;;;;;;;;;;;;;;5103716;28;19920;-67
2022/05/23 06:01:36;;;;;;;;;;;;;;;;;;5105058;28;19928;-68
2022/05/23 06:04:02;;;;;;;;;;;;;;;;;;5078719;28;19959;-68
2022/05/23 06:11:59;;;;;;;;;;;;;;;;;;5103655;28;19950;-67
2022/05/23 06:14:25;;;;;;;;;;;;;;;;;;5104542;28;19931;-68
2022/05/23 06:16:51;;;;;;;;;;;;;;;;;;5105255;28;19920;-67
2022/05/23 06:19:17;;;;;;;;;;;;;;;;;;5105600;28;19923;-67
2022/05/23 06:21:43;;;;;;;;;;;;;;;;;;5105842;28;19974;-67
2022/05/23 06:24:09;;;;;;;;;;;;;;;;;;5109835;28;19924;-67
2022/05/23 06:26:36;;;;;;;;;;;;;;;;;;5103599;28;20010;-68
2022/05/23 06:29:02;;;;;;;;;;;;;;;;;;5125934;28;19926;-68
2022/05/23 06:31:28;;;;;;;;;;;;;;;;;;5109489;28;20042;-68
2022/05/23 06:33:54;;;;;;;;;;;;;;;;;;5107547;28;20002;-68
2022/05/23 06:36:20;;;;;;;;;;;;;;;;;;5115112;28;19934;-68
2022/05/23 06:38:47;;;;;;;;;;;;;;;;;;5125395;28;19939;-67
2022/05/23 06:41:13;;;;;;;;;;;;;;;;;;5099794;28;19919;-68
2022/05/23 06:43:39;;;;;;;;;;;;;;;;;;5083538;28;19946;-68
2022/05/23 06:46:05;;;;;;;;;;;;;;;;;;5103768;28;19942;-68
2022/05/23 06:48:31;;;;;;;;;;;;;;;;;;5125833;28;19926;-68
2022/05/23 06:50:57;;;;;;;;;;;;;;;;;;5118228;28;19920;-68
2022/05/23 06:53:23;;;;;;;;;;;;;;;;;;5105290;28;20019;-68
2022/05/23 06:55:49;;;;;;;;;;;;;;;;;;5105268;28;19920;-68
2022/05/23 06:58:15;;;;;;;;;;;;;;;;;;5100213;28;20368;-68
2022/05/23 07:00:41;;;;;;;;;;;;;;;;;;5105796;28;20321;-67
2022/05/23 07:03:07;;;;;;;;;;;;;;;;;;5089256;28;19920;-67
2022/05/23 07:13:47;;;;;;;;;;;;;;;;;;5101531;28;19920;-68
2022/05/23 07:16:16;;;;;;;;;;;;;;;;;;5125179;28;19919;-68
2022/05/23 07:18:42;;;;;;;;;;;;;;;;;;5104143;28;19920;-68
2022/05/23 07:21:08;;;;;;;;;;;;;;;;;;5105966;28;19928;-68
2022/05/23 07:23:35;;;;;;;;;;;;;;;;;;5106039;28;20196;-68
2022/05/23 07:26:01;;;;;;;;;;;;;;;;;;5100364;28;19920;-68
2022/05/23 07:28:27;;;;;;;;;;;;;;;;;;5112456;28;20367;-68
2022/05/23 07:30:53;;;;;;;;;;;;;;;;;;5099610;28;20439;-68
2022/05/23 07:33:20;;;;;;;;;;;;;;;;;;5107167;28;20018;-68
2022/05/23 07:35:46;;;;;;;;;;;;;;;;;;5105087;28;19921;-68
2022/05/23 07:38:12;;;;;;;;;;;;;;;;;;5090593;28;20383;-68
2022/05/23 07:40:38;;;;;;;;;;;;;;;;;;5129145;28;19941;-68
2022/05/23 07:43:04;;;;;;;;;;;;;;;;;;5116497;28;19927;-68
2022/05/23 07:45:30;;;;;;;;;;;;;;;;;;5112856;28;19923;-69
2022/05/23 07:47:56;;;;;;;;;;;;;;;;;;5144839;27;19941;-69
2022/05/23 07:50:22;;;;;;;;;;;;;;;;;;5109464;28;19920;-68
2022/05/23 08:01:02;;;;;;;;;;;;;;;;;;5106606;28;19923;-68
2022/05/23 08:03:29;;;;;;;;;;;;;;;;;;5112536;28;19942;-69
2022/05/23 08:05:55;;;;;;;;;;;;;;;;;;5126932;28;19938;-68
2022/05/23 08:08:21;;;;;;;;;;;;;;;;;;5127391;28;19927;-68
2022/05/23 08:10:47;;;;;;;;;;;;;;;;;;5128648;28;19919;-68
2022/05/23 08:13:13;;;;;;;;;;;;;;;;;;5128726;28;20019;-69
2022/05/23 08:15:39;;;;;;;;;;;;;;;;;;5128417;28;19920;-69
2022/05/23 08:18:05;;;;;;;;;;;;;;;;;;5126611;28;19962;-69
2022/05/23 08:20:31;;;;;;;;;;;;;;;;;;5125369;28;19986;-68
2022/05/23 08:22:59;;;;;;;;;;;;;;;;;;5107614;28;19924;-68
2022/05/23 08:25:25;;;;;;;;;;;;;;;;;;5101020;28;20017;-69
2022/05/23 08:27:53;;;;;;;;;;;;;;;;;;5108473;28;20371;-69
2022/05/23 08:30:19;;;;;;;;;;;;;;;;;;5104104;28;19988;-69
2022/05/23 08:32:45;;;;;;;;;;;;;;;;;;5102993;28;19920;-68
2022/05/23 08:35:11;;;;;;;;;;;;;;;;;;5103736;28;19977;-68
2022/05/23 08:37:37;;;;;;;;;;;;;;;;;;5093406;28;19920;-68
2022/05/23 08:40:03;;;;;;;;;;;;;;;;;;5102762;28;19920;-69
2022/05/23 08:42:29;;;;;;;;;;;;;;;;;;5108826;28;19927;-69
2022/05/23 08:44:55;;;;;;;;;;;;;;;;;;5095214;28;19932;-69
2022/05/23 08:47:21;;;;;;;;;;;;;;;;;;5106249;28;19924;-69
2022/05/23 08:49:47;;;;;;;;;;;;;;;;;;5112541;28;19924;-69
2022/05/23 08:52:13;;;;;;;;;;;;;;;;;;5098805;28;19920;-68
2022/05/23 08:54:39;;;;;;;;;;;;;;;;;;5102729;28;19920;-69
2022/05/23 08:57:05;;;;;;;;;;;;;;;;;;5107952;28;19924;-64
2022/05/23 08:59:31;;;;;;;;;;;;;;;;;;5106782;28;19966;-64
2022/05/23 09:01:57;;;;;;;;;;;;;;;;;;5101646;28;19920;-65
2022/05/23 09:04:23;;;;;;;;;;;;;;;;;;5102056;28;19920;-64
2022/05/23 09:06:49;;;;;;;;;;;;;;;;;;5104528;28;19942;-64
2022/05/23 09:09:15;;;;;;;;;;;;;;;;;;5103370;28;19964;-65
2022/05/23 09:11:41;;;;;;;;;;;;;;;;;;5113945;28;19924;-64
2022/05/23 09:14:07;;;;;;;;;;;;;;;;;;5106255;28;19928;-64
2022/05/23 09:16:33;;;;;;;;;;;;;;;;;;5094694;28;19920;-64
2022/05/23 09:18:59;;;;;;;;;;;;;;;;;;5102252;28;19920;-64
2022/05/23 09:22:12;;;;;;;;;;;;;;;;;;5099575;28;19924;-63
2022/05/23 09:24:11;;;;;;;;;;;;;;;;;;5105428;28;19946;-64
2022/05/23 09:26:38;;;;;;;;;;;;;;;;;;5100696;28;19970;-64
2022/05/23 09:29:04;;;;;;;;;;;;;;;;;;5104191;28;20596;-64
2022/05/23 09:31:30;;;;;;;;;;;;;;;;;;5109826;28;20019;-64
2022/05/23 09:33:56;;;;;;;;;;;;;;;;;;5106200;28;19927;-65
2022/05/23 09:36:22;;;;;;;;;;;;;;;;;;5098027;28;19959;-65
2022/05/23 09:38:48;;;;;;;;;;;;;;;;;;5093128;28;20234;-64
2022/05/23 09:41:14;;;;;;;;;;;;;;;;;;5100036;28;19920;-65
2022/05/23 09:49:10;;;;;;;;;;;;;;;;;;5081824;28;20201;-64
2022/05/23 09:51:36;;;;;;;;;;;;;;;;;;5097834;28;20069;-64
2022/05/23 09:54:02;;;;;;;;;;;;;;;;;;5100965;28;19928;-64
2022/05/23 09:56:29;;;;;;;;;;;;;;;;;;5107505;28;19927;-64
2022/05/23 09:58:55;;;;;;;;;;;;;;;;;;5110677;28;20014;-64
2022/05/23 10:01:21;;;;;;;;;;;;;;;;;;5100395;28;19946;-64
2022/05/23 10:03:47;;;;;;;;;;;;;;;;;;5098478;28;19928;-64
2022/05/23 10:06:14;;;;;;;;;;;;;;;;;;5109638;28;19923;-64
2022/05/23 10:08:39;;;;;;;;;;;;;;;;;;5124922;28;19964;-64
2022/05/23 10:11:06;;;;;;;;;;;;;;;;;;5103623;28;19967;-64
2022/05/23 10:13:32;;;;;;;;;;;;;;;;;;5102008;28;19919;-64
2022/05/23 10:15:58;;;;;;;;;;;;;;;;;;5122163;28;19965;-64
2022/05/23 10:18:24;;;;;;;;;;;;;;;;;;5105915;28;19919;-64
2022/05/23 10:20:51;;;;;;;;;;;;;;;;;;5105494;28;19963;-64
2022/05/23 10:23:19;;;;;;;;;;;;;;;;;;5110845;28;19926;-63
2022/05/23 10:25:45;;;;;;;;;;;;;;;;;;5125926;28;19923;-61
2022/05/23 10:28:12;;;;;;;;;;;;;;;;;;5126007;28;19920;-60
2022/05/23 10:30:38;;;;;;;;;;;;;;;;;;5125821;28;19923;-61
2022/05/23 10:33:04;;;;;;;;;;;;;;;;;;5111544;28;19951;-60
2022/05/23 10:35:30;;;;;;;;;;;;;;;;;;5124563;28;19923;-61
2022/05/23 10:42:07;;;;;;;;;;;;;;;;;;5113089;28;19966;-61
2022/05/23 10:43:27;;;;;;;;;;;;;;;;;;5107753;28;19930;-65
2022/05/23 10:45:53;;;;;;;;;;;;;;;;;;5105254;28;19927;-65
2022/05/23 10:48:22;;;;;;;;;;;;;;;;;;5105532;28;19920;-65
2022/05/23 10:50:48;;;;;;;;;;;;;;;;;;5105207;28;19924;-65
2022/05/23 10:53:14;;;;;;;;;;;;;;;;;;5105026;28;19966;-65
2022/05/23 10:55:40;;;;;;;;;;;;;;;;;;5106393;28;19931;-64
2022/05/23 10:58:06;;;;;;;;;;;;;;;;;;5125369;28;19919;-64
2022/05/23 11:00:32;;;;;;;;;;;;;;;;;;5111190;28;20062;-64
2022/05/23 11:02:58;;;;;;;;;;;;;;;;;;5106116;28;20043;-64
2022/05/23 11:05:24;;;;;;;;;;;;;;;;;;5119005;28;19927;-64
2022/05/23 11:07:50;;;;;;;;;;;;;;;;;;5109201;28;19952;-63
2022/05/23 11:10:17;;;;;;;;;;;;;;;;;;5109350;28;19981;-63
2022/05/23 11:12:43;;;;;;;;;;;;;;;;;;5109054;28;20012;-63
2022/05/23 11:15:09;;;;;;;;;;;;;;;;;;5101072;28;19924;-64
2022/05/23 11:17:35;;;;;;;;;;;;;;;;;;5129454;28;20434;-65
2022/05/23 11:20:03;;;;;;;;;;;;;;;;;;5129616;28;19945;-65
2022/05/23 11:22:29;;;;;;;;;;;;;;;;;;5129403;28;19927;-64
2022/05/23 11:24:55;;;;;;;;;;;;;;;;;;5124269;28;20342;-65
2022/05/23 11:35:41;;;;;;;;;;;;;;;;;;5100467;28;20307;-66
2022/05/23 11:38:08;;;;;;;;;;;;;;;;;;5108095;28;19920;-66
2022/05/23 11:40:34;;;;;;;;;;;;;;;;;;5107947;28;19991;-66
2022/05/23 11:43:00;;;;;;;;;;;;;;;;;;5105066;28;19924;-66
2022/05/23 11:48:11;;;;;;;;;;;;;;;;;;5108051;28;19989;-64
2022/05/23 11:50:37;;;;;;;;;;;;;;;;;;5102876;28;19924;-65
2022/05/23 11:53:03;;;;;;;;;;;;;;;;;;5102671;28;19920;-65
2022/05/23 11:55:29;;;;;;;;;;;;;;;;;;5107582;28;19934;-65
2022/05/23 11:57:55;;;;;;;;;;;;;;;;;;5100200;28;19919;-65
2022/05/23 12:00:21;;;;;;;;;;;;;;;;;;5106288;28;20470;-65
2022/05/23 12:02:47;;;;;;;;;;;;;;;;;;5108564;28;19927;-66
2022/05/23 12:05:14;;;;;;;;;;;;;;;;;;5108104;28;19919;-66
2022/05/23 12:07:41;;;;;;;;;;;;;;;;;;5107939;28;19978;-66
2022/05/23 12:10:07;;;;;;;;;;;;;;;;;;5108088;28;19924;-66
2022/05/23 12:12:34;;;;;;;;;;;;;;;;;;5114048;28;19919;-66
2022/05/23 12:15:00;;;;;;;;;;;;;;;;;;5127721;28;19962;-66
2022/05/23 12:17:26;;;;;;;;;;;;;;;;;;5128379;28;19939;-66
2022/05/23 12:19:53;;;;;;;;;;;;;;;;;;5128445;28;20179;-66
2022/05/23 12:22:19;;;;;;;;;;;;;;;;;;5126837;28;19974;-65
2022/05/23 12:24:46;;;;;;;;;;;;;;;;;;5121242;28;19935;-66
2022/05/23 12:27:13;;;;;;;;;;;;;;;;;;5091521;28;19984;-65
2022/05/23 12:29:39;;;;;;;;;;;;;;;;;;5118436;28;19920;-65
2022/05/23 12:32:05;;;;;;;;;;;;;;;;;;5109699;28;19964;-65
2022/05/23 12:34:31;;;;;;;;;;;;;;;;;;5127916;28;19920;-66
2022/05/23 12:36:57;;;;;;;;;;;;;;;;;;5108149;28;19966;-66
2022/05/23 12:39:23;;;;;;;;;;;;;;;;;;5107412;28;19930;-66
2022/05/23 12:41:50;;;;;;;;;;;;;;;;;;5106926;28;20398;-66
2022/05/23 12:44:16;;;;;;;;;;;;;;;;;;5127727;28;20367;-66
2022/05/23 12:46:42;;;;;;;;;;;;;;;;;;5110174;28;19942;-66
2022/05/23 12:49:08;;;;;;;;;;;;;;;;;;5107463;28;19920;-66
2022/05/23 12:51:34;;;;;;;;;;;;;;;;;;5107055;28;19966;-60
2022/05/23 12:54:00;;;;;;;;;;;;;;;;;;5124779;28;20380;-65
2022/05/23 12:56:26;;;;;;;;;;;;;;;;;;5121451;28;19928;-66
2022/05/23 12:58:52;;;;;;;;;;;;;;;;;;5106875;28;19920;-65
2022/05/23 13:01:18;;;;;;;;;;;;;;;;;;5107052;28;19966;-66
2022/05/23 13:03:44;;;;;;;;;;;;;;;;;;5094398;28;20345;-66
2022/05/23 13:06:10;;;;;;;;;;;;;;;;;;5092501;28;19920;-65
2022/05/23 13:08:36;;;;;;;;;;;;;;;;;;5086561;28;19920;-65
2022/05/23 13:11:02;;;;;;;;;;;;;;;;;;5086728;28;19974;-67
2022/05/23 13:13:28;;;;;;;;;;;;;;;;;;5105280;28;19941;-67
2022/05/23 13:15:54;;;;;;;;;;;;;;;;;;5127367;28;19920;-66
2022/05/23 13:23:53;;;;;;;;;;;;;;;;;;5127293;28;20294;-67
2022/05/23 13:26:19;;;;;;;;;;;;;;;;;;5127248;28;20305;-67
2022/05/23 13:28:44;;;;;;;;;;;;;;;;;;5108654;28;19958;-67
2022/05/23 13:31:10;;;;;;;;;;;;;;;;;;5107212;28;19979;-67
2022/05/23 13:33:37;;;;;;;;;;;;;;;;;;5126694;28;19959;-67
2022/05/23 13:36:03;;;;;;;;;;;;;;;;;;5126742;28;19919;-67
2022/05/23 13:38:29;;;;;;;;;;;;;;;;;;5126890;28;19926;-67
2022/05/23 13:40:55;;;;;;;;;;;;;;;;;;5125163;28;19920;-67
2022/05/23 13:43:21;;;;;;;;;;;;;;;;;;5108510;28;19924;-67
2022/05/23 13:45:47;;;;;;;;;;;;;;;;;;5102288;28;19924;-67
2022/05/23 13:48:14;;;;;;;;;;;;;;;;;;5096143;28;19930;-67
2022/05/23 13:50:40;;;;;;;;;;;;;;;;;;5111659;28;19919;-67
2022/05/23 13:53:06;;;;;;;;;;;;;;;;;;5098874;28;19927;-66
2022/05/23 13:55:32;;;;;;;;;;;;;;;;;;5094803;28;19920;-67
2022/05/23 13:57:58;;;;;;;;;;;;;;;;;;5090134;28;20003;-67
2022/05/23 14:00:24;;;;;;;;;;;;;;;;;;5107077;28;19920;-66
2022/05/23 14:02:50;;;;;;;;;;;;;;;;;;5105240;28;19927;-66
2022/05/23 14:05:16;;;;;;;;;;;;;;;;;;5105821;28;19966;-66
2022/05/23 14:07:42;;;;;;;;;;;;;;;;;;5105543;28;19920;-66
2022/05/23 14:10:10;;;;;;;;;;;;;;;;;;5096374;28;19920;-66
2022/05/23 14:12:36;;;;;;;;;;;;;;;;;;5084464;28;19920;-66
2022/05/23 14:15:02;;;;;;;;;;;;;;;;;;5085600;28;19920;-66
2022/05/23 14:17:28;;;;;;;;;;;;;;;;;;5084465;28;19920;-65
2022/05/23 14:19:54;;;;;;;;;;;;;;;;;;5077996;28;20457;-66
2022/05/23 14:22:20;;;;;;;;;;;;;;;;;;5079935;28;19924;-66
2022/05/23 14:24:47;;;;;;;;;;;;;;;;;;5083517;28;19981;-66
2022/05/23 14:27:13;;;;;;;;;;;;;;;;;;5085380;28;19930;-65
2022/05/23 14:29:39;;;;;;;;;;;;;;;;;;5066035;28;19924;-65
2022/05/23 14:32:05;;;;;;;;;;;;;;;;;;5084434;28;19973;-65
2022/05/23 14:34:31;;;;;;;;;;;;;;;;;;5084995;28;19921;-66
2022/05/23 14:36:57;;;;;;;;;;;;;;;;;;5084443;28;19920;-66
2022/05/23 14:39:24;;;;;;;;;;;;;;;;;;5083968;28;19963;-67
2022/05/23 14:41:50;;;;;;;;;;;;;;;;;;5085151;28;20271;-66
2022/05/23 14:44:20;;;;;;;;;;;;;;;;;;5085130;28;19921;-66
2022/05/23 14:46:46;;;;;;;;;;;;;;;;;;5050517;28;20003;-66
2022/05/23 14:49:12;;;;;;;;;;;;;;;;;;5067336;28;19920;-66
2022/05/23 14:51:38;;;;;;;;;;;;;;;;;;5084825;28;20225;-66
2022/05/23 14:56:48;;;;;;;;;;;;;;;;;;5085177;28;19974;-67
2022/05/23 15:01:59;;;;;;;;;;;;;;;;;;5085000;28;19928;-66
2022/05/23 15:04:25;;;;;;;;;;;;;;;;;;5088043;28;19920;-66
2022/05/23 15:06:51;;;;;;;;;;;;;;;;;;5104862;28;20403;-66
2022/05/23 15:09:17;;;;;;;;;;;;;;;;;;5115034;28;19919;-67
2022/05/23 15:11:44;;;;;;;;;;;;;;;;;;5125646;28;19941;-66
2022/05/23 15:14:10;;;;;;;;;;;;;;;;;;5125525;28;19919;-67
2022/05/23 15:16:37;;;;;;;;;;;;;;;;;;5121728;28;20463;-65
2022/05/23 15:19:03;;;;;;;;;;;;;;;;;;5084337;28;19921;-66
2022/05/23 15:21:29;;;;;;;;;;;;;;;;;;5110690;28;20395;-67
2022/05/23 15:23:55;;;;;;;;;;;;;;;;;;5104632;28;19983;-67
2022/05/23 15:26:21;;;;;;;;;;;;;;;;;;5104727;28;19924;-66
2022/05/23 15:28:47;;;;;;;;;;;;;;;;;;5085617;28;19920;-66
2022/05/23 15:31:13;;;;;;;;;;;;;;;;;;5107079;28;19925;-66
2022/05/23 15:33:39;;;;;;;;;;;;;;;;;;5084634;28;19927;-66
2022/05/23 15:36:05;;;;;;;;;;;;;;;;;;5084638;28;19920;-66
2022/05/23 15:38:31;;;;;;;;;;;;;;;;;;5084364;28;19927;-67
2022/05/23 15:40:57;;;;;;;;;;;;;;;;;;5123304;28;19927;-66
2022/05/23 15:43:23;;;;;;;;;;;;;;;;;;5125265;28;19919;-67
2022/05/23 15:45:49;;;;;;;;;;;;;;;;;;5125350;28;19919;-66
2022/05/23 15:48:16;;;;;;;;;;;;;;;;;;5123933;28;19927;-66
2022/05/23 15:50:45;;;;;;;;;;;;;;;;;;5124827;28;19920;-66
2022/05/23 15:53:11;;;;;;;;;;;;;;;;;;5128836;28;20287;-66
2022/05/23 15:55:37;;;;;;;;;;;;;;;;;;5129091;28;19920;-66
2022/05/23 15:58:03;;;;;;;;;;;;;;;;;;5110390;28;20374;-66
2022/05/23 16:00:29;;;;;;;;;;;;;;;;;;5126674;28;20002;-66
2022/05/23 16:02:55;;;;;;;;;;;;;;;;;;5128629;28;19990;-66
2022/05/23 16:05:21;;;;;;;;;;;;;;;;;;5128489;28;20032;-67
2022/05/23 16:07:47;;;;;;;;;;;;;;;;;;5128388;28;20416;-67
2022/05/23 16:10:14;;;;;;;;;;;;;;;;;;5095163;28;19920;-66
2022/05/23 16:12:40;;;;;;;;;;;;;;;;;;5108002;28;19963;-67
2022/05/23 16:15:06;;;;;;;;;;;;;;;;;;5101998;28;19951;-66
2022/05/23 16:17:32;;;;;;;;;;;;;;;;;;5090182;28;19924;-66
2022/05/23 16:19:58;;;;;;;;;;;;;;;;;;5088588;28;19924;-66
2022/05/23 16:22:24;;;;;;;;;;;;;;;;;;5106660;28;19924;-66
2022/05/23 16:24:50;;;;;;;;;;;;;;;;;;5115850;28;19923;-66
2022/05/23 16:27:16;;;;;;;;;;;;;;;;;;5109737;28;19919;-66
2022/05/23 16:29:42;;;;;;;;;;;;;;;;;;5126684;28;19927;-66
2022/05/23 16:36:35;;;;;;;;;;;;;;;;;;5128222;28;19926;-66
2022/05/23 16:37:39;;;;;;;;;;;;;;;;;;5127828;28;19930;-66
2022/05/23 16:40:05;;;;;;;;;;;;;;;;;;5086965;28;20307;-66
2022/05/23 16:42:31;;;;;;;;;;;;;;;;;;5117787;28;19924;-67
2022/05/23 16:44:57;;;;;;;;;;;;;;;;;;5111455;28;19927;-67
2022/05/23 16:47:23;;;;;;;;;;;;;;;;;;5108060;28;19942;-67
2022/05/23 16:49:49;;;;;;;;;;;;;;;;;;5112970;28;19920;-67
2022/05/23 16:52:15;;;;;;;;;;;;;;;;;;5104715;28;19920;-67
2022/05/23 16:54:41;;;;;;;;;;;;;;;;;;5104300;28;19926;-67
2022/05/23 16:57:07;;;;;;;;;;;;;;;;;;5095097;28;19921;-67
2022/05/23 16:59:33;;;;;;;;;;;;;;;;;;5120316;27;20395;-67
2022/05/23 17:02:02;;;;;;;;;;;;;;;;;;5108971;28;19919;-67
2022/05/23 17:04:28;;;;;;;;;;;;;;;;;;5106785;28;19924;-68
2022/05/23 17:06:54;;;;;;;;;;;;;;;;;;5127243;28;20328;-66
2022/05/23 17:09:20;;;;;;;;;;;;;;;;;;5104097;28;19919;-66
2022/05/23 17:11:46;;;;;;;;;;;;;;;;;;5127235;28;20014;-67
2022/05/23 17:14:13;;;;;;;;;;;;;;;;;;5108871;28;19926;-67
2022/05/23 17:16:39;;;;;;;;;;;;;;;;;;5127299;28;19920;-67
2022/05/23 17:19:05;;;;;;;;;;;;;;;;;;5118711;28;20324;-67
2022/05/23 17:21:31;;;;;;;;;;;;;;;;;;5102035;28;19963;-66
2022/05/23 17:23:57;;;;;;;;;;;;;;;;;;5111033;28;19920;-66
2022/05/23 17:26:23;;;;;;;;;;;;;;;;;;5103377;28;19931;-68
2022/05/23 17:28:49;;;;;;;;;;;;;;;;;;5106408;28;19973;-67
2022/05/23 17:31:15;;;;;;;;;;;;;;;;;;5116384;28;19919;-67
2022/05/23 17:33:41;;;;;;;;;;;;;;;;;;5112530;28;19962;-67
2022/05/23 17:36:07;;;;;;;;;;;;;;;;;;5104711;28;19943;-66
2022/05/23 17:38:33;;;;;;;;;;;;;;;;;;5113929;28;19999;-67
2022/05/23 17:40:59;;;;;;;;;;;;;;;;;;5120444;28;20016;-67
2022/05/23 17:43:25;;;;;;;;;;;;;;;;;;5121462;28;19935;-67
2022/05/23 17:45:51;;;;;;;;;;;;;;;;;;5126747;28;19920;-67
2022/05/23 17:48:17;;;;;;;;;;;;;;;;;;5126722;28;20049;-66
2022/05/23 17:50:43;;;;;;;;;;;;;;;;;;5126645;28;19920;-67
2022/05/23 17:53:09;;;;;;;;;;;;;;;;;;5124784;28;20336;-69
2022/05/23 17:55:35;;;;;;;;;;;;;;;;;;5101144;28;19919;-66